New Hampton, IA

6:35 AM CDT on August 21, 2014 (GMT -0500)
Charles City Municipal | Change Station
CLOSE
Current Station
Airport
Location: Charles City,
Elevation: 1125 ft
Nearby Weather Stations
Active Advisory: Severe Thunderstorm Watch

Elev 1125 ft 43.07 °N, 92.61 °W | Updated 20 minutes ago

Mostly Cloudy
Mostly Cloudy
72 °F
Feels Like 72 °F
N
6
Wind Variable Wind from ESE
Gusts 12 mph

Today
High -- | Low -- °F
--% Chance of Precip.
Yesterday
High -- | Low -- °F
Precip. -- in
6:21 AM 8:02 PM
Waning Crescent, 15% visible
Pressure 29.84 in
Visibility 10.0 miles
Clouds Scattered Clouds 6000 ft
Scattered Clouds 8000 ft
Mostly Cloudy 14000 ft
Dew Point 70 °F
Humidity 94%
Rainfall 0.25 in
Snow Depth Not available.
UV 0 out of 12
Pollen 5.90 out of 12
Air Quality Not available.
Flu Activity Not available.
METAR KCCY 211115Z AUTO 12005G10KT 10SM SCT060 SCT080 BKN140 22/21 A2984 RMK AO2

More Conditions Fewer Conditions

Pressure 29.84 in
Visibility 10.0 miles
Clouds Scattered Clouds 6000 ft
Scattered Clouds 8000 ft
Mostly Cloudy 14000 ft
Dew Point 70 °F
Humidity 94%
Rainfall 0.25 in
Snow Depth Not available.
UV 0 out of 12
Pollen 5.90 out of 12
Air Quality Not available.
Flu Activity Not available.
METAR KCCY 211115Z AUTO 12005G10KT 10SM SCT060 SCT080 BKN140 22/21 A2984 RMK AO2

More Conditions Fewer Conditions

10-Day Weather Forecast

Almanac

Astronomy

Aug. 21, 2014 Rise Set
Actual Time 6:21 AM CDT 8:02 PM CDT
Civil Twilight 5:51 AM CDT 8:32 PM CDT
Nautical Twilight 5:14 AM CDT 9:08 PM CDT
Astronomical Twilight 4:35 AM CDT 9:47 PM CDT
Moon 2:49 AM CDT 5:33 PM CDT
Length of Visible Light 14h 40m
Length of Day
13h 40m
Tomorrow will be 2m 42s shorter.
Waning Crescent, 15% of the Moon is Illuminated
Today
Waning Crescent
Aug 25
New
Sep 2
First Quarter
Sep 8
Full
Sep 15
Last Quarter

Today's Extremes

State Highs State Lows

Community

WunderPhotos

Upload Photos

1,745,862 photos uploaded!

Nearby

Snow Depth

Station Depth Elevation
No new snow has been reported.

Earthquake Activity

City Distance Mag. Time & Date
No recent earthquake activity has been reported nearby.
Minimum magnitude displayed is 2.5.

Coastal Water Temperatures

Place Temperature
No Stations Reporting

Nearby Weather Stations